Huvudsida
METAR-TAF:

METAR-TAF

Flygplatser :

Turin, Italien

latitud: 45-05-20N, longitud: 007-36-20E, höjd: 288 m

Aktuellt väderrapport

Denna rapport gjordes för 3 timmar och 54 minuter sedan, klockan 15:50 UTC
Vind 3 kt från syd/sydväst, varierande mellan sydost och väst/sydväst
Temperatur 13°C
Fuktighet 22%
Tryck 1017 hPa
Sikt 10 km eller mer
Inga moln under 1 500 m eller inga cumulonimbus

METAR: LIMA 281550Z 21003KT 140V250 CAVOK 13/M08 Q1017

Tid: 20:44 (19:44 UTC)


TAF: saknas

Aktuella väderrapporter och prognoser från 4000 flygplatser (METAR- och TAF-rapporter).

De tillgängliga stationerna syns som gula och röda prickar på kartan.

För musen över prickarna för att se namnen på stationerna.

Klicka sedan för att få väderrapporter och prognoser.

För att ändra kartan: Klicka på de gröna knapparna med ett svart kors på för att zooma in; den gröna knappen med ett streck på för att zooma ut; eller på de gröna pilarna för angränsande kartor.


METAR-TAF: